If you wish to contribute or participate in the discussions about articles you are invited to join SKYbrary as a registered user

 Actions

Algiers/Houari Boumediene

From SKYbrary Wiki

DAAG /
Revision as of 15:59, 24 March 2010 by Editor1 (talk | contribs) (Created page with '{{Airport |Airport_Name=Algiers/Houari Boumediene |ICAO_Region=AFI |ICAO_Territory=DA |Location=Algiers/Houari Boumediene, Algeria |Coordinates=36° 41′ 42″ N, 3° 13′ 6″…')
(diff) ← Older revision | Latest revision (diff) | Newer revision → (diff)
Airport
ICAO: DAAG
Summary
Name Algiers/Houari Boumediene
Region Africa
Territory Algeria DZ.gif
Location Algiers/Houari Boumediene, Algeria
Serving
Coordinates 36° 41' 42.00" N, 3° 13' 6.00" E
Runways
Designator Length Width Surface ROPS
5/23 3500 m11,482.94 ft
60 m196.85 ft
ASP yes/yes
9/27 3500 m11,482.94 ft
45 m147.638 ft
ASP yes/yes


METAR
Observation DAAG 241530Z 01012KT 9999 SCT023TCU 22/15 Q1024
Station Dar-El-Beida
Date/Time 24 October 2020 15:30:00
Wind direction 10°
Wind speed 12 kts
Lowest cloud amount scattered clouds
Temperature 22°C
Dew point 15°C
Humidity 64%
QNH 1024 hPa
Weather condition n/a


Algiers/Houari Boumediene Airport

ICAO: DAAG IATA: MAN

Description

International airport serving...

Climatology

Maps

Terrain

Loading map...

Airport Layout

Loading map...

Accidents & Serious Incidents at or in vicinity of DAAG

None on SKYbrary